Portada
METAR-TAF:

METAR-TAF

Aeroports :

Gaithersburg, Maryland, Estats Units d'Amèrica

latitud: 39-10-06N, longitud: 077-09-58W, altitud: 164 m

Observació

L'informe es va fer fa 50 minuts, a les 13:56 UTC
Vent 10 kt del Oest/Nord-Oest
Temperatura -4°C
Humitat 58%
Pressió 1030 hPa
Visibilitat: 16.1 km
Cel clar

METAR: KGAI 131356Z AUTO 30010KT 10SM CLR M04/M11 A3041 RMK AO2 SLP321 T10391106 FZRANO

Hora: 09:46 (14:46 UTC)


TAF: manca

Observacions i pronòstics meteorològics de més de 4000 aeroports (METAR i TAF).

Les estacions disponibles són els punts grocs i vermells al mapa.

Posi el ratolí al punt desitjat per veure el nom de l'estació.

Feu clic per veure les observacions i els pronòstics meteorològics.

Per canviar el mapa: feu clic els botons verds amb una creu de color negre per apropar; al botó verd amb un guió per allunyar la imatge; o en les fletxes verdes per a mapes adjacents.


METAR-TAF: